sensor_id;sensor_type;location;lat;lon;timestamp;P1;durP1;ratioP1;P2;durP2;ratioP2
19255;SDS011;9762;52.490;13.410;2023-11-21T00:00:00;3.57;;;3.37;;
19255;SDS011;9762;52.490;13.410;2023-11-21T00:02:26;4.50;;;4.20;;
19255;SDS011;9762;52.490;13.410;2023-11-21T00:04:54;4.90;;;4.50;;
19255;SDS011;9762;52.490;13.410;2023-11-21T00:07:20;5.40;;;5.00;;
19255;SDS011;9762;52.490;13.410;2023-11-21T00:09:46;4.77;;;4.47;;
19255;SDS011;9762;52.490;13.410;2023-11-21T00:12:12;6.03;;;5.53;;
19255;SDS011;9762;52.490;13.410;2023-11-21T00:14:39;6.30;;;5.80;;
19255;SDS011;9762;52.490;13.410;2023-11-21T00:17:05;6.50;;;6.03;;
19255;SDS011;9762;52.490;13.410;2023-11-21T00:19:31;6.97;;;6.37;;
19255;SDS011;9762;52.490;13.410;2023-11-21T00:21:58;7.43;;;6.73;;
19255;SDS011;9762;52.490;13.410;2023-11-21T00:24:24;8.13;;;7.33;;
19255;SDS011;9762;52.490;13.410;2023-11-21T00:26:50;8.20;;;7.40;;
19255;SDS011;9762;52.490;13.410;2023-11-21T00:29:16;10.30;;;8.47;;
19255;SDS011;9762;52.490;13.410;2023-11-21T00:31:43;9.73;;;8.73;;
19255;SDS011;9762;52.490;13.410;2023-11-21T00:34:09;10.57;;;8.60;;
19255;SDS011;9762;52.490;13.410;2023-11-21T00:36:36;12.87;;;10.20;;
19255;SDS011;9762;52.490;13.410;2023-11-21T00:39:02;11.13;;;10.00;;
19255;SDS011;9762;52.490;13.410;2023-11-21T00:41:28;11.50;;;10.10;;
19255;SDS011;9762;52.490;13.410;2023-11-21T00:43:54;13.00;;;10.57;;
19255;SDS011;9762;52.490;13.410;2023-11-21T00:46:20;13.50;;;11.17;;
19255;SDS011;9762;52.490;13.410;2023-11-21T00:48:46;15.50;;;11.90;;
19255;SDS011;9762;52.490;13.410;2023-11-21T00:51:11;14.20;;;10.87;;
19255;SDS011;9762;52.490;13.410;2023-11-21T00:53:37;13.63;;;12.17;;
19255;SDS011;9762;52.490;13.410;2023-11-21T00:56:04;15.47;;;12.83;;
19255;SDS011;9762;52.490;13.410;2023-11-21T00:58:30;17.53;;;12.03;;
19255;SDS011;9762;52.490;13.410;2023-11-21T01:00:56;17.20;;;13.40;;
19255;SDS011;9762;52.490;13.410;2023-11-21T01:03:22;17.30;;;12.43;;
19255;SDS011;9762;52.490;13.410;2023-11-21T01:05:48;22.10;;;13.03;;
19255;SDS011;9762;52.490;13.410;2023-11-21T01:08:15;18.37;;;12.77;;
19255;SDS011;9762;52.490;13.410;2023-11-21T01:10:40;20.13;;;13.37;;
19255;SDS011;9762;52.490;13.410;2023-11-21T01:13:06;21.57;;;13.60;;
19255;SDS011;9762;52.490;13.410;2023-11-21T01:15:32;17.80;;;12.13;;
19255;SDS011;9762;52.490;13.410;2023-11-21T01:17:58;19.23;;;13.80;;
19255;SDS011;9762;52.490;13.410;2023-11-21T01:20:24;21.30;;;14.50;;
19255;SDS011;9762;52.490;13.410;2023-11-21T01:22:50;24.43;;;15.03;;
19255;SDS011;9762;52.490;13.410;2023-11-21T01:25:15;22.60;;;14.37;;
19255;SDS011;9762;52.490;13.410;2023-11-21T01:27:42;26.67;;;16.37;;
19255;SDS011;9762;52.490;13.410;2023-11-21T01:30:08;28.47;;;16.70;;
19255;SDS011;9762;52.490;13.410;2023-11-21T01:32:35;31.90;;;19.00;;
19255;SDS011;9762;52.490;13.410;2023-11-21T01:35:02;30.77;;;17.77;;
19255;SDS011;9762;52.490;13.410;2023-11-21T01:37:28;32.87;;;19.47;;
19255;SDS011;9762;52.490;13.410;2023-11-21T01:39:54;27.43;;;18.63;;
19255;SDS011;9762;52.490;13.410;2023-11-21T01:42:22;33.37;;;19.73;;
19255;SDS011;9762;52.490;13.410;2023-11-21T01:44:48;33.10;;;20.67;;
19255;SDS011;9762;52.490;13.410;2023-11-21T01:47:14;35.17;;;21.47;;
19255;SDS011;9762;52.490;13.410;2023-11-21T01:49:40;35.77;;;20.27;;
19255;SDS011;9762;52.490;13.410;2023-11-21T01:52:09;32.80;;;20.23;;
19255;SDS011;9762;52.490;13.410;2023-11-21T01:54:36;30.00;;;18.93;;
19255;SDS011;9762;52.490;13.410;2023-11-21T01:57:03;30.70;;;18.77;;
19255;SDS011;9762;52.490;13.410;2023-11-21T01:59:34;30.20;;;17.83;;
19255;SDS011;9762;52.490;13.410;2023-11-21T02:02:04;32.93;;;18.90;;
19255;SDS011;9762;52.490;13.410;2023-11-21T02:04:32;28.53;;;17.73;;
19255;SDS011;9762;52.490;13.410;2023-11-21T02:06:58;26.20;;;15.70;;
19255;SDS011;9762;52.490;13.410;2023-11-21T02:09:25;24.70;;;14.70;;
19255;SDS011;9762;52.490;13.410;2023-11-21T02:11:52;23.53;;;14.93;;
19255;SDS011;9762;52.490;13.410;2023-11-21T02:14:19;22.83;;;15.07;;
19255;SDS011;9762;52.490;13.410;2023-11-21T02:16:47;21.20;;;13.67;;
19255;SDS011;9762;52.490;13.410;2023-11-21T02:19:20;21.67;;;13.23;;
19255;SDS011;9762;52.490;13.410;2023-11-21T02:21:54;19.17;;;12.23;;
19255;SDS011;9762;52.490;13.410;2023-11-21T02:24:23;19.93;;;11.83;;
19255;SDS011;9762;52.490;13.410;2023-11-21T02:26:49;19.53;;;11.03;;
19255;SDS011;9762;52.490;13.410;2023-11-21T02:29:21;16.47;;;11.33;;
19255;SDS011;9762;52.490;13.410;2023-11-21T02:31:47;16.83;;;11.57;;
19255;SDS011;9762;52.490;13.410;2023-11-21T02:34:15;13.70;;;10.43;;
19255;SDS011;9762;52.490;13.410;2023-11-21T02:36:41;18.53;;;11.63;;
19255;SDS011;9762;52.490;13.410;2023-11-21T02:39:08;15.57;;;11.20;;
19255;SDS011;9762;52.490;13.410;2023-11-21T02:41:34;14.70;;;10.83;;
19255;SDS011;9762;52.490;13.410;2023-11-21T02:44:00;16.13;;;11.20;;
19255;SDS011;9762;52.490;13.410;2023-11-21T02:46:26;13.93;;;9.77;;
19255;SDS011;9762;52.490;13.410;2023-11-21T02:48:52;14.17;;;9.47;;
19255;SDS011;9762;52.490;13.410;2023-11-21T02:51:20;11.70;;;8.53;;
19255;SDS011;9762;52.490;13.410;2023-11-21T02:53:46;10.20;;;8.87;;
19255;SDS011;9762;52.490;13.410;2023-11-21T02:56:12;13.23;;;8.63;;
19255;SDS011;9762;52.490;13.410;2023-11-21T02:58:41;12.60;;;7.90;;
19255;SDS011;9762;52.490;13.410;2023-11-21T03:01:09;10.60;;;8.00;;
19255;SDS011;9762;52.490;13.410;2023-11-21T03:03:36;10.00;;;7.83;;
19255;SDS011;9762;52.490;13.410;2023-11-21T03:06:04;9.70;;;8.23;;
19255;SDS011;9762;52.490;13.410;2023-11-21T03:08:30;10.17;;;7.67;;
19255;SDS011;9762;52.490;13.410;2023-11-21T03:10:55;9.47;;;8.47;;
19255;SDS011;9762;52.490;13.410;2023-11-21T03:13:21;10.40;;;9.30;;
19255;SDS011;9762;52.490;13.410;2023-11-21T03:15:46;12.93;;;9.60;;
19255;SDS011;9762;52.490;13.410;2023-11-21T03:18:12;10.33;;;9.20;;
19255;SDS011;9762;52.490;13.410;2023-11-21T03:20:38;9.23;;;8.27;;
19255;SDS011;9762;52.490;13.410;2023-11-21T03:23:03;9.17;;;8.27;;
19255;SDS011;9762;52.490;13.410;2023-11-21T03:25:30;8.07;;;7.37;;
19255;SDS011;9762;52.490;13.410;2023-11-21T03:27:56;9.63;;;8.73;;
19255;SDS011;9762;52.490;13.410;2023-11-21T03:30:21;11.37;;;7.57;;
19255;SDS011;9762;52.490;13.410;2023-11-21T03:32:47;9.47;;;8.03;;
19255;SDS011;9762;52.490;13.410;2023-11-21T03:35:13;8.50;;;7.70;;
19255;SDS011;9762;52.490;13.410;2023-11-21T03:37:38;9.53;;;8.57;;
19255;SDS011;9762;52.490;13.410;2023-11-21T03:40:06;8.00;;;7.30;;
19255;SDS011;9762;52.490;13.410;2023-11-21T03:42:34;8.20;;;7.50;;
19255;SDS011;9762;52.490;13.410;2023-11-21T03:45:00;7.77;;;7.10;;
19255;SDS011;9762;52.490;13.410;2023-11-21T03:47:28;7.77;;;7.03;;
19255;SDS011;9762;52.490;13.410;2023-11-21T03:49:54;8.03;;;7.33;;
19255;SDS011;9762;52.490;13.410;2023-11-21T03:52:20;7.27;;;6.67;;
19255;SDS011;9762;52.490;13.410;2023-11-21T03:54:45;7.53;;;6.90;;
19255;SDS011;9762;52.490;13.410;2023-11-21T03:57:11;7.30;;;6.70;;
19255;SDS011;9762;52.490;13.410;2023-11-21T03:59:39;6.97;;;6.40;;
19255;SDS011;9762;52.490;13.410;2023-11-21T04:02:06;7.43;;;6.83;;
19255;SDS011;9762;52.490;13.410;2023-11-21T04:04:32;7.50;;;6.77;;
19255;SDS011;9762;52.490;13.410;2023-11-21T04:06:58;7.60;;;6.90;;
19255;SDS011;9762;52.490;13.410;2023-11-21T04:09:24;7.30;;;6.80;;
19255;SDS011;9762;52.490;13.410;2023-11-21T04:11:50;9.23;;;6.73;;
19255;SDS011;9762;52.490;13.410;2023-11-21T04:14:16;7.60;;;7.00;;
19255;SDS011;9762;52.490;13.410;2023-11-21T04:16:42;6.83;;;6.37;;
19255;SDS011;9762;52.490;13.410;2023-11-21T04:19:08;7.57;;;6.97;;
19255;SDS011;9762;52.490;13.410;2023-11-21T04:21:39;7.10;;;6.57;;
19255;SDS011;9762;52.490;13.410;2023-11-21T04:24:06;9.03;;;6.87;;
19255;SDS011;9762;52.490;13.410;2023-11-21T04:26:32;6.70;;;6.20;;
19255;SDS011;9762;52.490;13.410;2023-11-21T04:28:57;7.07;;;6.57;;
19255;SDS011;9762;52.490;13.410;2023-11-21T04:31:23;5.87;;;5.47;;
19255;SDS011;9762;52.490;13.410;2023-11-21T04:33:49;6.70;;;6.20;;
19255;SDS011;9762;52.490;13.410;2023-11-21T04:36:14;6.93;;;6.37;;
19255;SDS011;9762;52.490;13.410;2023-11-21T04:38:40;6.70;;;6.17;;
19255;SDS011;9762;52.490;13.410;2023-11-21T04:41:06;7.17;;;6.57;;
19255;SDS011;9762;52.490;13.410;2023-11-21T04:43:32;7.10;;;6.60;;
19255;SDS011;9762;52.490;13.410;2023-11-21T04:45:57;7.30;;;6.70;;
19255;SDS011;9762;52.490;13.410;2023-11-21T04:48:23;7.23;;;6.53;;
19255;SDS011;9762;52.490;13.410;2023-11-21T04:50:49;7.33;;;6.77;;
19255;SDS011;9762;52.490;13.410;2023-11-21T04:53:14;7.57;;;6.97;;
19255;SDS011;9762;52.490;13.410;2023-11-21T04:55:40;7.23;;;6.63;;
19255;SDS011;9762;52.490;13.410;2023-11-21T04:58:06;7.10;;;6.50;;
19255;SDS011;9762;52.490;13.410;2023-11-21T05:00:33;6.90;;;6.30;;
19255;SDS011;9762;52.490;13.410;2023-11-21T05:02:59;7.23;;;6.63;;
19255;SDS011;9762;52.490;13.410;2023-11-21T05:05:26;6.73;;;6.03;;
19255;SDS011;9762;52.490;13.410;2023-11-21T05:07:52;7.23;;;6.63;;
19255;SDS011;9762;52.490;13.410;2023-11-21T05:10:18;7.00;;;6.40;;
19255;SDS011;9762;52.490;13.410;2023-11-21T05:12:44;6.13;;;5.67;;
19255;SDS011;9762;52.490;13.410;2023-11-21T05:15:13;6.90;;;6.40;;
19255;SDS011;9762;52.490;13.410;2023-11-21T05:17:40;6.40;;;5.90;;
19255;SDS011;9762;52.490;13.410;2023-11-21T05:20:15;6.07;;;5.57;;
19255;SDS011;9762;52.490;13.410;2023-11-21T05:22:46;6.10;;;5.60;;
19255;SDS011;9762;52.490;13.410;2023-11-21T05:25:15;6.60;;;6.03;;
19255;SDS011;9762;52.490;13.410;2023-11-21T05:27:43;6.47;;;5.90;;
19255;SDS011;9762;52.490;13.410;2023-11-21T05:30:10;6.00;;;5.50;;
19255;SDS011;9762;52.490;13.410;2023-11-21T05:32:36;6.37;;;5.97;;
19255;SDS011;9762;52.490;13.410;2023-11-21T05:35:03;6.83;;;6.23;;
19255;SDS011;9762;52.490;13.410;2023-11-21T05:37:34;6.27;;;5.87;;
19255;SDS011;9762;52.490;13.410;2023-11-21T05:40:01;6.77;;;6.17;;
19255;SDS011;9762;52.490;13.410;2023-11-21T05:42:31;6.90;;;6.30;;
19255;SDS011;9762;52.490;13.410;2023-11-21T05:44:57;6.70;;;6.10;;
19255;SDS011;9762;52.490;13.410;2023-11-21T05:47:24;6.97;;;6.27;;
19255;SDS011;9762;52.490;13.410;2023-11-21T05:49:51;7.00;;;6.40;;
19255;SDS011;9762;52.490;13.410;2023-11-21T05:52:17;6.43;;;5.93;;
19255;SDS011;9762;52.490;13.410;2023-11-21T05:54:43;6.70;;;6.17;;
19255;SDS011;9762;52.490;13.410;2023-11-21T05:57:09;6.63;;;6.03;;
19255;SDS011;9762;52.490;13.410;2023-11-21T05:59:34;6.57;;;6.07;;
19255;SDS011;9762;52.490;13.410;2023-11-21T06:02:00;7.40;;;6.80;;
19255;SDS011;9762;52.490;13.410;2023-11-21T06:04:27;7.17;;;6.57;;
19255;SDS011;9762;52.490;13.410;2023-11-21T06:06:52;8.60;;;6.50;;
19255;SDS011;9762;52.490;13.410;2023-11-21T06:09:18;7.20;;;6.50;;
19255;SDS011;9762;52.490;13.410;2023-11-21T06:11:44;7.03;;;6.43;;
19255;SDS011;9762;52.490;13.410;2023-11-21T06:14:10;6.97;;;6.37;;
19255;SDS011;9762;52.490;13.410;2023-11-21T06:16:36;6.20;;;5.80;;
19255;SDS011;9762;52.490;13.410;2023-11-21T06:19:01;18.10;;;14.90;;
19255;SDS011;9762;52.490;13.410;2023-11-21T06:21:27;21.80;;;17.93;;
19255;SDS011;9762;52.490;13.410;2023-11-21T06:23:53;6.90;;;6.30;;
19255;SDS011;9762;52.490;13.410;2023-11-21T06:48:22;5.80;;;5.30;;
19255;SDS011;9762;52.490;13.410;2023-11-21T06:50:47;6.80;;;6.20;;
19255;SDS011;9762;52.490;13.410;2023-11-21T06:53:13;6.50;;;5.90;;
19255;SDS011;9762;52.490;13.410;2023-11-21T06:58:05;6.15;;;5.55;;
19255;SDS011;9762;52.490;13.410;2023-11-21T07:00:31;6.95;;;6.25;;
19255;SDS011;9762;52.490;13.410;2023-11-21T07:15:06;6.20;;;5.60;;
19255;SDS011;9762;52.490;13.410;2023-11-21T08:20:59;8.77;;;4.40;;
19255;SDS011;9762;52.490;13.410;2023-11-21T08:23:24;4.53;;;4.23;;
19255;SDS011;9762;52.490;13.410;2023-11-21T08:25:50;4.73;;;4.33;;
19255;SDS011;9762;52.490;13.410;2023-11-21T08:28:16;5.27;;;4.83;;
19255;SDS011;9762;52.490;13.410;2023-11-21T08:30:42;6.47;;;4.60;;
19255;SDS011;9762;52.490;13.410;2023-11-21T08:33:08;5.23;;;4.50;;
19255;SDS011;9762;52.490;13.410;2023-11-21T08:35:34;6.73;;;4.70;;
19255;SDS011;9762;52.490;13.410;2023-11-21T08:38:01;7.00;;;5.00;;
19255;SDS011;9762;52.490;13.410;2023-11-21T08:40:27;8.67;;;5.27;;
19255;SDS011;9762;52.490;13.410;2023-11-21T08:42:52;7.30;;;6.10;;
19255;SDS011;9762;52.490;13.410;2023-11-21T08:45:18;7.33;;;5.93;;
19255;SDS011;9762;52.490;13.410;2023-11-21T08:47:44;8.60;;;6.50;;
19255;SDS011;9762;52.490;13.410;2023-11-21T08:50:10;12.53;;;6.53;;
19255;SDS011;9762;52.490;13.410;2023-11-21T08:52:37;9.23;;;6.53;;
19255;SDS011;9762;52.490;13.410;2023-11-21T08:55:04;9.20;;;6.73;;
19255;SDS011;9762;52.490;13.410;2023-11-21T08:57:36;8.67;;;6.70;;
19255;SDS011;9762;52.490;13.410;2023-11-21T09:00:03;8.63;;;6.03;;
19255;SDS011;9762;52.490;13.410;2023-11-21T09:02:32;8.90;;;6.07;;
19255;SDS011;9762;52.490;13.410;2023-11-21T09:04:59;9.83;;;6.10;;
19255;SDS011;9762;52.490;13.410;2023-11-21T09:07:28;10.33;;;6.73;;
19255;SDS011;9762;52.490;13.410;2023-11-21T09:09:54;11.10;;;7.33;;
19255;SDS011;9762;52.490;13.410;2023-11-21T09:12:20;13.23;;;6.67;;
19255;SDS011;9762;52.490;13.410;2023-11-21T09:14:45;12.20;;;6.97;;
19255;SDS011;9762;52.490;13.410;2023-11-21T09:17:11;10.07;;;6.43;;
19255;SDS011;9762;52.490;13.410;2023-11-21T09:19:40;11.97;;;6.97;;
19255;SDS011;9762;52.490;13.410;2023-11-21T09:22:06;8.47;;;6.87;;
19255;SDS011;9762;52.490;13.410;2023-11-21T09:24:35;10.73;;;7.23;;
19255;SDS011;9762;52.490;13.410;2023-11-21T09:27:00;10.97;;;7.13;;
19255;SDS011;9762;52.490;13.410;2023-11-21T09:29:26;12.17;;;7.17;;
19255;SDS011;9762;52.490;13.410;2023-11-21T09:31:52;9.43;;;6.57;;
19255;SDS011;9762;52.490;13.410;2023-11-21T09:34:19;10.33;;;6.40;;
19255;SDS011;9762;52.490;13.410;2023-11-21T09:36:45;10.13;;;6.40;;
19255;SDS011;9762;52.490;13.410;2023-11-21T09:39:11;7.23;;;5.33;;
19255;SDS011;9762;52.490;13.410;2023-11-21T09:41:52;8.73;;;6.10;;
19255;SDS011;9762;52.490;13.410;2023-11-21T09:47:16;7.83;;;6.00;;
19255;SDS011;9762;52.490;13.410;2023-11-21T09:49:46;7.20;;;5.10;;
19255;SDS011;9762;52.490;13.410;2023-11-21T09:52:32;7.93;;;5.30;;
19255;SDS011;9762;52.490;13.410;2023-11-21T09:55:01;8.23;;;5.43;;
19255;SDS011;9762;52.490;13.410;2023-11-21T09:57:27;6.67;;;4.93;;
19255;SDS011;9762;52.490;13.410;2023-11-21T09:59:54;6.53;;;4.40;;
19255;SDS011;9762;52.490;13.410;2023-11-21T10:02:24;4.70;;;4.03;;
19255;SDS011;9762;52.490;13.410;2023-11-21T10:04:53;4.40;;;4.00;;
19255;SDS011;9762;52.490;13.410;2023-11-21T10:07:20;4.87;;;4.20;;
19255;SDS011;9762;52.490;13.410;2023-11-21T10:09:46;6.57;;;4.23;;
19255;SDS011;9762;52.490;13.410;2023-11-21T10:12:13;4.10;;;3.70;;
19255;SDS011;9762;52.490;13.410;2023-11-21T10:14:41;4.07;;;3.77;;
19255;SDS011;9762;52.490;13.410;2023-11-21T10:17:08;3.00;;;2.80;;
19255;SDS011;9762;52.490;13.410;2023-11-21T10:19:37;2.90;;;2.70;;
19255;SDS011;9762;52.490;13.410;2023-11-21T10:22:04;3.60;;;3.00;;
19255;SDS011;9762;52.490;13.410;2023-11-21T10:24:32;2.97;;;2.70;;
19255;SDS011;9762;52.490;13.410;2023-11-21T10:26:58;2.70;;;2.57;;
19255;SDS011;9762;52.490;13.410;2023-11-21T10:29:24;2.60;;;2.50;;
19255;SDS011;9762;52.490;13.410;2023-11-21T10:31:51;3.80;;;3.27;;
19255;SDS011;9762;52.490;13.410;2023-11-21T10:34:20;2.93;;;2.80;;
19255;SDS011;9762;52.490;13.410;2023-11-21T10:36:46;2.77;;;2.67;;
19255;SDS011;9762;52.490;13.410;2023-11-21T10:39:17;2.70;;;2.60;;
19255;SDS011;9762;52.490;13.410;2023-11-21T10:41:47;3.07;;;2.87;;
19255;SDS011;9762;52.490;13.410;2023-11-21T10:44:13;3.13;;;2.83;;
19255;SDS011;9762;52.490;13.410;2023-11-21T10:46:46;2.80;;;2.70;;
19255;SDS011;9762;52.490;13.410;2023-11-21T10:49:16;3.10;;;2.90;;
19255;SDS011;9762;52.490;13.410;2023-11-21T10:51:43;3.13;;;2.93;;
19255;SDS011;9762;52.490;13.410;2023-11-21T10:54:09;3.43;;;3.23;;
19255;SDS011;9762;52.490;13.410;2023-11-21T10:56:34;2.67;;;2.57;;
19255;SDS011;9762;52.490;13.410;2023-11-21T10:59:06;3.20;;;2.90;;
19255;SDS011;9762;52.490;13.410;2023-11-21T11:01:36;3.10;;;2.80;;
19255;SDS011;9762;52.490;13.410;2023-11-21T11:04:02;3.07;;;2.77;;
19255;SDS011;9762;52.490;13.410;2023-11-21T11:06:31;3.53;;;3.23;;
19255;SDS011;9762;52.490;13.410;2023-11-21T11:08:58;2.93;;;2.83;;
19255;SDS011;9762;52.490;13.410;2023-11-21T11:11:27;3.40;;;3.20;;
19255;SDS011;9762;52.490;13.410;2023-11-21T11:13:55;3.17;;;2.97;;
19255;SDS011;9762;52.490;13.410;2023-11-21T11:16:21;3.67;;;3.37;;
19255;SDS011;9762;52.490;13.410;2023-11-21T11:18:49;3.27;;;3.07;;
19255;SDS011;9762;52.490;13.410;2023-11-21T11:21:27;4.33;;;3.93;;
19255;SDS011;9762;52.490;13.410;2023-11-21T11:27:22;3.20;;;3.00;;
19255;SDS011;9762;52.490;13.410;2023-11-21T11:32:03;3.50;;;3.00;;
19255;SDS011;9762;52.490;13.410;2023-11-21T11:34:44;3.47;;;3.00;;
19255;SDS011;9762;52.490;13.410;2023-11-21T11:37:15;3.00;;;2.80;;
19255;SDS011;9762;52.490;13.410;2023-11-21T11:39:41;2.70;;;2.50;;
19255;SDS011;9762;52.490;13.410;2023-11-21T11:42:11;2.40;;;2.20;;
19255;SDS011;9762;52.490;13.410;2023-11-21T11:47:27;3.83;;;2.97;;
19255;SDS011;9762;52.490;13.410;2023-11-21T11:55:11;3.67;;;3.37;;
19255;SDS011;9762;52.490;13.410;2023-11-21T11:57:44;2.60;;;2.50;;
19255;SDS011;9762;52.490;13.410;2023-11-21T12:00:21;2.87;;;2.77;;
19255;SDS011;9762;52.490;13.410;2023-11-21T12:02:51;2.63;;;2.53;;
19255;SDS011;9762;52.490;13.410;2023-11-21T12:05:18;4.23;;;2.77;;
19255;SDS011;9762;52.490;13.410;2023-11-21T12:07:51;2.40;;;2.30;;
19255;SDS011;9762;52.490;13.410;2023-11-21T12:10:22;2.93;;;2.73;;
19255;SDS011;9762;52.490;13.410;2023-11-21T12:12:54;2.60;;;2.50;;
19255;SDS011;9762;52.490;13.410;2023-11-21T12:15:26;2.70;;;2.60;;
19255;SDS011;9762;52.490;13.410;2023-11-21T12:17:54;2.90;;;2.60;;
19255;SDS011;9762;52.490;13.410;2023-11-21T12:20:20;2.67;;;2.47;;
19255;SDS011;9762;52.490;13.410;2023-11-21T12:22:48;2.83;;;2.73;;
19255;SDS011;9762;52.490;13.410;2023-11-21T12:25:24;2.63;;;2.53;;
19255;SDS011;9762;52.490;13.410;2023-11-21T12:27:53;4.23;;;2.60;;
19255;SDS011;9762;52.490;13.410;2023-11-21T12:30:21;2.83;;;2.70;;
19255;SDS011;9762;52.490;13.410;2023-11-21T12:32:48;3.10;;;2.90;;
19255;SDS011;9762;52.490;13.410;2023-11-21T12:35:19;3.33;;;3.13;;
19255;SDS011;9762;52.490;13.410;2023-11-21T12:37:46;2.80;;;2.70;;
19255;SDS011;9762;52.490;13.410;2023-11-21T12:40:14;2.77;;;2.67;;
19255;SDS011;9762;52.490;13.410;2023-11-21T12:42:41;3.60;;;3.30;;
19255;SDS011;9762;52.490;13.410;2023-11-21T12:45:08;2.47;;;2.37;;
19255;SDS011;9762;52.490;13.410;2023-11-21T12:47:48;4.10;;;2.83;;
19255;SDS011;9762;52.490;13.410;2023-11-21T12:50:24;2.60;;;2.50;;
19255;SDS011;9762;52.490;13.410;2023-11-21T12:53:14;2.90;;;2.73;;
19255;SDS011;9762;52.490;13.410;2023-11-21T12:55:43;2.97;;;2.77;;
19255;SDS011;9762;52.490;13.410;2023-11-21T12:58:15;3.00;;;2.80;;
19255;SDS011;9762;52.490;13.410;2023-11-21T13:00:45;2.20;;;2.10;;
19255;SDS011;9762;52.490;13.410;2023-11-21T13:03:12;2.33;;;2.23;;
19255;SDS011;9762;52.490;13.410;2023-11-21T13:05:41;2.93;;;2.20;;
19255;SDS011;9762;52.490;13.410;2023-11-21T13:08:09;2.40;;;2.40;;
19255;SDS011;9762;52.490;13.410;2023-11-21T13:10:43;2.30;;;2.20;;
19255;SDS011;9762;52.490;13.410;2023-11-21T13:13:11;2.60;;;2.50;;
19255;SDS011;9762;52.490;13.410;2023-11-21T13:15:50;2.60;;;2.50;;
19255;SDS011;9762;52.490;13.410;2023-11-21T13:18:25;2.63;;;2.53;;
19255;SDS011;9762;52.490;13.410;2023-11-21T13:20:53;2.83;;;2.70;;
19255;SDS011;9762;52.490;13.410;2023-11-21T13:23:20;3.30;;;3.10;;
19255;SDS011;9762;52.490;13.410;2023-11-21T13:25:46;3.10;;;3.00;;
19255;SDS011;9762;52.490;13.410;2023-11-21T13:28:13;3.23;;;2.93;;
19255;SDS011;9762;52.490;13.410;2023-11-21T13:30:40;3.40;;;3.10;;
19255;SDS011;9762;52.490;13.410;2023-11-21T13:33:07;3.10;;;3.00;;
19255;SDS011;9762;52.490;13.410;2023-11-21T13:35:35;3.67;;;3.37;;
19255;SDS011;9762;52.490;13.410;2023-11-21T13:38:11;3.53;;;3.37;;
19255;SDS011;9762;52.490;13.410;2023-11-21T13:40:38;4.60;;;4.20;;
19255;SDS011;9762;52.490;13.410;2023-11-21T13:43:11;4.47;;;4.07;;
19255;SDS011;9762;52.490;13.410;2023-11-21T13:45:38;5.53;;;5.03;;
19255;SDS011;9762;52.490;13.410;2023-11-21T13:48:05;5.13;;;4.70;;
19255;SDS011;9762;52.490;13.410;2023-11-21T13:50:35;5.67;;;5.27;;
19255;SDS011;9762;52.490;13.410;2023-11-21T13:53:02;5.93;;;5.43;;
19255;SDS011;9762;52.490;13.410;2023-11-21T13:55:44;5.90;;;5.40;;
19255;SDS011;9762;52.490;13.410;2023-11-21T13:58:10;5.20;;;4.73;;
19255;SDS011;9762;52.490;13.410;2023-11-21T14:00:42;11.00;;;4.87;;
19255;SDS011;9762;52.490;13.410;2023-11-21T14:03:12;7.27;;;5.47;;
19255;SDS011;9762;52.490;13.410;2023-11-21T14:05:47;5.00;;;4.70;;
19255;SDS011;9762;52.490;13.410;2023-11-21T14:08:16;5.47;;;4.97;;
19255;SDS011;9762;52.490;13.410;2023-11-21T14:10:49;5.43;;;5.03;;
19255;SDS011;9762;52.490;13.410;2023-11-21T14:13:25;4.80;;;4.40;;
19255;SDS011;9762;52.490;13.410;2023-11-21T14:15:52;5.50;;;5.10;;
19255;SDS011;9762;52.490;13.410;2023-11-21T14:18:25;5.87;;;5.47;;
19255;SDS011;9762;52.490;13.410;2023-11-21T14:20:55;6.70;;;6.20;;
19255;SDS011;9762;52.490;13.410;2023-11-21T14:23:21;6.73;;;6.13;;
19255;SDS011;9762;52.490;13.410;2023-11-21T14:25:48;7.50;;;6.80;;
19255;SDS011;9762;52.490;13.410;2023-11-21T14:28:15;7.77;;;7.07;;
19255;SDS011;9762;52.490;13.410;2023-11-21T14:30:40;8.27;;;7.57;;
19255;SDS011;9762;52.490;13.410;2023-11-21T14:33:07;8.43;;;7.53;;
19255;SDS011;9762;52.490;13.410;2023-11-21T14:35:34;9.17;;;8.37;;
19255;SDS011;9762;52.490;13.410;2023-11-21T14:38:00;9.87;;;8.97;;
19255;SDS011;9762;52.490;13.410;2023-11-21T14:40:29;10.43;;;9.53;;
19255;SDS011;9762;52.490;13.410;2023-11-21T14:43:00;13.57;;;10.90;;
19255;SDS011;9762;52.490;13.410;2023-11-21T14:45:26;12.70;;;10.40;;
19255;SDS011;9762;52.490;13.410;2023-11-21T14:47:53;11.37;;;10.20;;
19255;SDS011;9762;52.490;13.410;2023-11-21T14:50:45;11.40;;;10.27;;
19255;SDS011;9762;52.490;13.410;2023-11-21T14:53:34;13.27;;;11.70;;
19255;SDS011;9762;52.490;13.410;2023-11-21T14:56:19;11.70;;;10.67;;
19255;SDS011;9762;52.490;13.410;2023-11-21T14:58:54;13.03;;;11.53;;
19255;SDS011;9762;52.490;13.410;2023-11-21T15:01:21;14.20;;;11.20;;
19255;SDS011;9762;52.490;13.410;2023-11-21T15:04:06;13.00;;;11.60;;
19255;SDS011;9762;52.490;13.410;2023-11-21T15:06:33;14.57;;;13.07;;
19255;SDS011;9762;52.490;13.410;2023-11-21T15:08:59;17.23;;;11.70;;
19255;SDS011;9762;52.490;13.410;2023-11-21T15:11:34;13.10;;;11.90;;
19255;SDS011;9762;52.490;13.410;2023-11-21T15:14:01;14.70;;;13.10;;
19255;SDS011;9762;52.490;13.410;2023-11-21T15:16:32;13.67;;;12.27;;
19255;SDS011;9762;52.490;13.410;2023-11-21T15:18:58;14.50;;;11.80;;
19255;SDS011;9762;52.490;13.410;2023-11-21T15:21:23;15.67;;;12.30;;
19255;SDS011;9762;52.490;13.410;2023-11-21T15:23:50;12.87;;;11.53;;
19255;SDS011;9762;52.490;13.410;2023-11-21T15:26:16;12.70;;;11.37;;
19255;SDS011;9762;52.490;13.410;2023-11-21T15:28:41;12.93;;;11.47;;
19255;SDS011;9762;52.490;13.410;2023-11-21T15:31:07;14.37;;;10.73;;
19255;SDS011;9762;52.490;13.410;2023-11-21T15:33:34;11.70;;;10.60;;
19255;SDS011;9762;52.490;13.410;2023-11-21T15:36:04;12.27;;;10.77;;
19255;SDS011;9762;52.490;13.410;2023-11-21T15:38:30;11.50;;;10.30;;
19255;SDS011;9762;52.490;13.410;2023-11-21T15:40:56;11.20;;;10.10;;
19255;SDS011;9762;52.490;13.410;2023-11-21T15:43:23;11.33;;;10.27;;
19255;SDS011;9762;52.490;13.410;2023-11-21T15:45:50;12.13;;;10.27;;
19255;SDS011;9762;52.490;13.410;2023-11-21T15:48:15;11.43;;;10.23;;
19255;SDS011;9762;52.490;13.410;2023-11-21T15:50:41;10.80;;;9.80;;
19255;SDS011;9762;52.490;13.410;2023-11-21T15:53:07;9.93;;;9.00;;
19255;SDS011;9762;52.490;13.410;2023-11-21T15:55:33;11.20;;;9.87;;
19255;SDS011;9762;52.490;13.410;2023-11-21T15:58:01;11.87;;;9.40;;
19255;SDS011;9762;52.490;13.410;2023-11-21T16:00:29;10.50;;;9.53;;
19255;SDS011;9762;52.490;13.410;2023-11-21T16:02:55;11.87;;;10.30;;
19255;SDS011;9762;52.490;13.410;2023-11-21T16:05:22;11.03;;;9.97;;
19255;SDS011;9762;52.490;13.410;2023-11-21T16:07:50;14.23;;;10.70;;
19255;SDS011;9762;52.490;13.410;2023-11-21T16:10:16;12.47;;;10.43;;
19255;SDS011;9762;52.490;13.410;2023-11-21T16:12:44;10.93;;;9.83;;
19255;SDS011;9762;52.490;13.410;2023-11-21T16:15:10;13.37;;;10.77;;
19255;SDS011;9762;52.490;13.410;2023-11-21T16:17:37;12.33;;;10.70;;
19255;SDS011;9762;52.490;13.410;2023-11-21T16:20:06;13.17;;;9.97;;
19255;SDS011;9762;52.490;13.410;2023-11-21T16:22:36;12.30;;;10.70;;
19255;SDS011;9762;52.490;13.410;2023-11-21T16:25:02;10.57;;;9.17;;
19255;SDS011;9762;52.490;13.410;2023-11-21T16:27:36;11.20;;;9.20;;
19255;SDS011;9762;52.490;13.410;2023-11-21T16:30:03;14.63;;;10.57;;
19255;SDS011;9762;52.490;13.410;2023-11-21T16:32:29;11.90;;;9.63;;
19255;SDS011;9762;52.490;13.410;2023-11-21T16:34:57;11.47;;;9.50;;
19255;SDS011;9762;52.490;13.410;2023-11-21T16:37:24;9.80;;;8.27;;
19255;SDS011;9762;52.490;13.410;2023-11-21T16:39:50;7.70;;;7.00;;